createdAt,value
2019-06-20T00:00:47.092Z,16.40
2019-06-20T00:04:03.877Z,17.25
2019-06-20T00:07:20.576Z,13.32
2019-06-20T00:10:37.289Z,15.38
2019-06-20T00:13:53.888Z,15.15
2019-06-20T00:17:10.864Z,13.72
2019-06-20T00:20:27.658Z,18.75
2019-06-20T00:23:44.390Z,14.75
2019-06-20T00:27:01.131Z,12.90
2019-06-20T00:30:19.088Z,16.85
2019-06-20T00:33:35.881Z,14.90
2019-06-20T00:36:52.694Z,13.43
2019-06-20T00:40:11.035Z,15.70
2019-06-20T00:43:27.662Z,15.83
2019-06-20T00:46:44.331Z,17.17
2019-06-20T00:50:01.075Z,14.87
2019-06-20T00:53:19.923Z,15.83
2019-06-20T00:56:36.739Z,11.12
2019-06-20T00:59:53.429Z,18.70
2019-06-20T01:03:10.195Z,20.12
2019-06-20T01:06:26.916Z,14.87
2019-06-20T01:09:43.513Z,11.93
2019-06-20T01:13:00.165Z,16.00
2019-06-20T01:16:16.913Z,15.65
2019-06-20T01:19:33.534Z,14.18
2019-06-20T01:22:50.168Z,18.37
2019-06-20T01:26:08.408Z,13.98
2019-06-20T01:29:25.687Z,14.15
2019-06-20T01:32:45.754Z,14.70
2019-06-20T01:36:02.659Z,17.67
2019-06-20T01:39:19.791Z,20.20
2019-06-20T01:42:37.305Z,14.75
2019-06-20T01:45:54.053Z,15.20
2019-06-20T01:49:11.025Z,13.83
2019-06-20T01:52:27.647Z,15.23
2019-06-20T01:55:44.379Z,15.23
2019-06-20T01:59:02.613Z,15.75
2019-06-20T02:02:19.276Z,16.85
2019-06-20T02:05:35.887Z,17.48
2019-06-20T02:08:52.874Z,11.18
2019-06-20T02:12:09.588Z,13.78
2019-06-20T02:15:26.284Z,14.78
2019-06-20T02:18:42.981Z,19.73
2019-06-20T02:21:59.748Z,12.78
2019-06-20T02:25:17.678Z,12.60
2019-06-20T02:28:34.893Z,15.93
2019-06-20T02:31:51.498Z,13.75
2019-06-20T02:35:08.203Z,15.05
2019-06-20T02:38:27.172Z,13.50
2019-06-20T02:41:45.388Z,11.40
2019-06-20T02:45:02.188Z,12.63
2019-06-20T02:48:18.948Z,15.50
2019-06-20T02:51:37.529Z,12.80
2019-06-20T02:54:54.560Z,14.90
2019-06-20T02:58:11.309Z,16.32
2019-06-20T03:01:27.937Z,14.20
2019-06-20T03:04:45.749Z,15.08
2019-06-20T03:08:02.989Z,10.80
2019-06-20T03:11:20.237Z,12.80
2019-06-20T03:14:45.472Z,11.53
2019-06-20T03:17:55.787Z,13.05
2019-06-20T03:21:15.152Z,13.83
2019-06-20T03:24:31.840Z,16.00
2019-06-20T03:27:48.474Z,16.95
2019-06-20T03:31:05.183Z,12.50
2019-06-20T03:34:21.829Z,14.25
2019-06-20T03:37:38.563Z,11.28
2019-06-20T03:40:55.232Z,14.03
2019-06-20T03:44:12.012Z,10.60
2019-06-20T03:47:28.720Z,16.95
2019-06-20T03:50:45.408Z,11.43
2019-06-20T03:54:02.027Z,14.60
2019-06-20T03:57:18.692Z,15.00
2019-06-20T04:00:39.421Z,11.53
2019-06-20T04:03:56.118Z,16.17
2019-06-20T04:07:12.904Z,13.48
2019-06-20T04:10:29.485Z,16.82
2019-06-20T04:13:47.656Z,12.65
2019-06-20T04:17:04.366Z,10.32
2019-06-20T04:20:20.960Z,14.40
2019-06-20T04:23:41.803Z,11.60
2019-06-20T04:26:58.433Z,12.33
2019-06-20T04:30:15.061Z,12.63
2019-06-20T04:33:31.836Z,10.35
2019-06-20T04:36:48.463Z,9.80
2019-06-20T04:40:05.210Z,11.38
2019-06-20T04:43:22.015Z,15.95
2019-06-20T04:46:53.807Z,15.75
2019-06-20T04:50:11.608Z,12.65
2019-06-20T04:53:28.376Z,9.08
2019-06-20T04:56:45.170Z,10.63
2019-06-20T05:00:02.646Z,11.90
2019-06-20T05:03:19.342Z,8.53
2019-06-20T05:06:36.088Z,14.95
2019-06-20T05:09:52.984Z,10.18
2019-06-20T05:13:09.784Z,10.28
2019-06-20T05:16:26.733Z,10.50
2019-06-20T05:19:43.359Z,9.30
2019-06-20T05:23:01.399Z,11.15
2019-06-20T05:26:18.137Z,8.53
2019-06-20T05:29:34.856Z,8.95
2019-06-20T05:32:52.057Z,13.28
2019-06-20T05:36:09.017Z,8.95
2019-06-20T05:39:25.776Z,12.00
2019-06-20T05:42:42.586Z,7.75
2019-06-20T05:46:08.772Z,9.18
2019-06-20T05:49:20.768Z,9.33
2019-06-20T05:52:38.424Z,9.68
2019-06-20T05:55:56.057Z,7.22
2019-06-20T05:59:15.077Z,10.13
2019-06-20T06:02:31.825Z,9.13
2019-06-20T06:05:50.698Z,7.12
2019-06-20T06:09:12.673Z,8.58
2019-06-20T06:12:31.662Z,13.17
2019-06-20T06:16:06.417Z,9.08
2019-06-20T06:19:24.668Z,6.62
2019-06-20T06:22:44.501Z,6.92
2019-06-20T06:25:59.957Z,8.33
2019-06-20T06:29:16.691Z,7.50
2019-06-20T06:32:39.940Z,7.30
2019-06-20T06:35:51.883Z,7.78
2019-06-20T06:39:13.770Z,12.73
2019-06-20T06:42:46.314Z,6.55
2019-06-20T06:46:12.112Z,8.55
2019-06-20T06:49:30.103Z,8.73
2019-06-20T06:52:51.221Z,8.25
2019-06-20T06:56:08.531Z,10.00
2019-06-20T06:59:33.791Z,8.05
2019-06-20T07:03:00.432Z,6.55
2019-06-20T07:06:29.432Z,5.85
2019-06-20T07:13:50.390Z,9.15
2019-06-20T07:17:17.598Z,6.28
2019-06-20T07:20:38.020Z,7.00
2019-06-20T07:24:01.090Z,6.47
2019-06-20T07:27:17.929Z,6.62
2019-06-20T07:30:37.341Z,5.22
2019-06-20T07:33:53.959Z,6.65
2019-06-20T07:37:14.741Z,8.70
2019-06-20T07:40:57.975Z,6.60
2019-06-20T07:44:22.847Z,5.42
2019-06-20T07:47:40.598Z,7.37
2019-06-20T07:50:57.577Z,7.03
2019-06-20T07:58:35.751Z,6.75
2019-06-20T08:02:01.545Z,5.85
2019-06-20T08:05:18.807Z,4.75
2019-06-20T08:08:43.017Z,10.30
2019-06-20T08:11:59.794Z,8.40
2019-06-20T08:15:18.681Z,4.95
2019-06-20T08:18:36.621Z,4.30
2019-06-20T08:21:53.377Z,4.60
2019-06-20T08:25:10.511Z,8.23
2019-06-20T08:28:27.271Z,7.15
2019-06-20T08:31:44.069Z,12.00
2019-06-20T08:35:16.722Z,5.15
2019-06-20T08:38:34.984Z,4.58
2019-06-20T08:41:57.155Z,7.87
2019-06-20T08:45:14.876Z,4.17
2019-06-20T08:48:31.484Z,6.05
2019-06-20T08:56:03.207Z,6.45
2019-06-20T08:59:24.799Z,6.53
2019-06-20T09:07:09.448Z,6.92
2019-06-20T09:10:59.540Z,3.45
2019-06-20T09:14:41.878Z,4.08
2019-06-20T09:18:02.886Z,3.83
2019-06-20T09:21:21.213Z,3.40
2019-06-20T09:24:37.999Z,3.33
2019-06-20T09:28:00.288Z,3.15
2019-06-20T09:31:28.061Z,6.75
2019-06-20T09:34:47.753Z,5.35
2019-06-20T09:38:04.588Z,3.05
2019-06-20T09:41:22.100Z,2.87
2019-06-20T09:44:46.811Z,3.60
2019-06-20T09:48:03.597Z,4.00
2019-06-20T09:51:22.087Z,4.62
2019-06-20T09:54:40.023Z,3.33
2019-06-20T09:58:05.728Z,3.45
2019-06-20T10:01:22.602Z,5.90
2019-06-20T10:04:57.188Z,9.85
2019-06-20T10:08:14.514Z,6.67
2019-06-20T10:11:40.538Z,3.98
2019-06-20T10:15:01.523Z,4.78
2019-06-20T10:18:21.079Z,3.65
2019-06-20T10:21:38.503Z,4.03
2019-06-20T10:24:55.211Z,4.33
2019-06-20T10:28:14.136Z,5.45
2019-06-20T10:31:30.895Z,5.65
2019-06-20T10:34:48.386Z,6.00
2019-06-20T10:38:15.566Z,3.87
2019-06-20T10:41:32.486Z,4.33
2019-06-20T10:44:49.797Z,5.53
2019-06-20T10:48:07.056Z,4.85
2019-06-20T10:51:44.113Z,3.62
2019-06-20T10:55:01.753Z,4.00
2019-06-20T10:58:18.743Z,5.47
2019-06-20T11:01:35.530Z,4.08
2019-06-20T11:04:52.917Z,4.08
2019-06-20T11:08:09.615Z,4.65
2019-06-20T11:11:26.650Z,4.20
2019-06-20T11:14:44.136Z,4.85
2019-06-20T11:18:01.871Z,4.53
2019-06-20T11:21:20.832Z,4.28
2019-06-20T11:24:39.162Z,5.87
2019-06-20T11:27:55.900Z,6.30
2019-06-20T11:31:13.571Z,5.12
2019-06-20T11:34:30.642Z,4.50
2019-06-20T11:37:47.457Z,6.58
2019-06-20T11:41:04.133Z,6.03
2019-06-20T11:44:20.747Z,8.68
2019-06-20T11:47:38.286Z,11.10
2019-06-20T11:50:54.931Z,7.30
2019-06-20T11:54:11.711Z,6.53
2019-06-20T11:57:30.210Z,9.75
2019-06-20T12:01:02.448Z,14.80
2019-06-20T12:04:05.529Z,15.93
2019-06-20T12:07:22.215Z,9.68
2019-06-20T12:10:39.310Z,7.58
2019-06-20T12:13:55.905Z,7.08
2019-06-20T12:17:12.542Z,5.40
2019-06-20T12:20:29.558Z,6.78
2019-06-20T12:23:46.869Z,5.20
2019-06-20T12:27:04.423Z,8.53
2019-06-20T12:30:23.042Z,5.10
2019-06-20T12:33:47.894Z,4.72
2019-06-20T12:37:04.511Z,6.33
2019-06-20T12:40:22.373Z,13.05
2019-06-20T12:43:41.872Z,4.25
2019-06-20T12:46:58.569Z,4.85
2019-06-20T12:50:16.449Z,4.80
2019-06-20T12:53:33.058Z,5.00
2019-06-20T12:56:50.188Z,4.53
2019-06-20T13:00:07.683Z,4.47
2019-06-20T13:03:24.983Z,4.95
2019-06-20T13:06:42.290Z,5.67
2019-06-20T13:09:58.956Z,4.58
2019-06-20T13:13:15.647Z,8.48
2019-06-20T13:16:32.707Z,4.40
2019-06-20T13:19:49.364Z,4.53
2019-06-20T13:23:05.945Z,7.33
2019-06-20T13:26:22.542Z,4.95
2019-06-20T13:29:40.695Z,7.20
2019-06-20T13:32:57.422Z,6.15
2019-06-20T13:36:14.123Z,4.30
2019-06-20T13:39:30.824Z,4.92
2019-06-20T13:42:48.067Z,4.75
2019-06-20T13:46:04.863Z,5.40
2019-06-20T13:49:21.587Z,4.37
2019-06-20T13:52:40.450Z,3.33
2019-06-20T13:55:56.561Z,3.40
2019-06-20T13:59:13.462Z,3.37
2019-06-20T14:02:30.116Z,3.58
2019-06-20T14:05:58.741Z,3.67
2019-06-20T14:09:28.333Z,4.67
2019-06-20T14:12:37.863Z,3.50
2019-06-20T14:16:00.082Z,3.25
2019-06-20T14:19:16.735Z,4.30
2019-06-20T14:22:33.374Z,4.80
2019-06-20T14:25:51.512Z,4.25
2019-06-20T14:29:08.401Z,2.85
2019-06-20T14:32:25.028Z,3.05
2019-06-20T14:35:43.484Z,6.62
2019-06-20T14:39:00.409Z,2.95
2019-06-20T14:42:21.596Z,2.95
2019-06-20T14:45:38.441Z,2.87
2019-06-20T14:48:55.365Z,3.85
2019-06-20T14:52:12.122Z,4.47
2019-06-20T14:55:28.992Z,3.22
2019-06-20T14:58:46.722Z,4.22
2019-06-20T15:02:03.394Z,3.17
2019-06-20T15:05:26.634Z,3.17
2019-06-20T15:08:43.966Z,4.22
2019-06-20T15:12:01.616Z,6.03
2019-06-20T15:15:19.649Z,5.75
2019-06-20T15:18:54.119Z,4.25
2019-06-20T15:22:11.887Z,5.45
2019-06-20T15:25:29.486Z,5.42
2019-06-20T15:28:47.564Z,7.70
2019-06-20T15:32:04.591Z,3.65
2019-06-20T15:35:27.567Z,4.92
2019-06-20T15:38:44.645Z,3.90
2019-06-20T15:42:01.334Z,4.67
2019-06-20T15:45:19.781Z,3.90
2019-06-20T15:48:36.707Z,3.72
2019-06-20T15:51:53.429Z,3.12
2019-06-20T15:55:15.831Z,5.53
2019-06-20T15:58:32.721Z,8.48
2019-06-20T16:01:49.398Z,4.67
2019-06-20T16:05:06.108Z,5.12
2019-06-20T16:08:23.137Z,9.38
2019-06-20T16:11:39.793Z,3.22
2019-06-20T16:14:57.902Z,8.55
2019-06-20T16:18:15.377Z,4.72
2019-06-20T16:21:31.967Z,6.28
2019-06-20T16:24:48.893Z,3.60
2019-06-20T16:28:05.827Z,3.62
2019-06-20T16:31:26.673Z,4.08
2019-06-20T16:34:40.992Z,5.72
2019-06-20T16:37:57.752Z,5.12
2019-06-20T16:41:14.421Z,3.17
2019-06-20T16:44:31.422Z,2.40
2019-06-20T16:47:48.165Z,2.67
2019-06-20T16:51:04.887Z,2.70
2019-06-20T16:54:21.865Z,3.22
2019-06-20T16:57:38.850Z,5.60
2019-06-20T17:00:55.576Z,3.10
2019-06-20T17:04:14.613Z,3.10
2019-06-20T17:10:50.535Z,3.95
2019-06-20T17:14:12.625Z,5.92
2019-06-20T17:17:29.496Z,3.40
2019-06-20T17:20:46.278Z,2.52
2019-06-20T17:24:12.238Z,2.67
2019-06-20T17:27:30.660Z,3.77
2019-06-20T17:30:47.671Z,2.90
2019-06-20T17:34:04.381Z,8.38
2019-06-20T17:37:21.234Z,4.47
2019-06-20T17:40:38.268Z,4.70
2019-06-20T17:43:55.152Z,4.03
2019-06-20T17:47:12.032Z,4.83
2019-06-20T17:50:36.689Z,3.05
2019-06-20T17:53:53.487Z,3.10
2019-06-20T17:57:13.242Z,3.12
2019-06-20T18:00:30.832Z,4.37
2019-06-20T18:03:47.564Z,2.85
2019-06-20T18:07:04.261Z,3.60
2019-06-20T18:10:22.268Z,2.30
2019-06-20T18:13:38.933Z,3.20
2019-06-20T18:16:57.638Z,3.75
2019-06-20T18:20:15.853Z,2.00
2019-06-20T18:23:32.531Z,5.65
2019-06-20T18:26:49.186Z,1.80
2019-06-20T18:30:05.803Z,2.08
2019-06-20T18:33:22.436Z,2.75
2019-06-20T18:36:39.121Z,2.60
2019-06-20T18:39:55.974Z,2.40
2019-06-20T18:43:12.980Z,2.25
2019-06-20T18:46:29.657Z,2.05
2019-06-20T18:49:46.362Z,2.42
2019-06-20T18:53:05.862Z,4.55
2019-06-20T18:56:23.449Z,2.10
2019-06-20T18:59:40.158Z,2.65
2019-06-20T19:02:56.919Z,2.10
2019-06-20T19:06:13.795Z,3.05
2019-06-20T19:09:30.549Z,5.35
2019-06-20T19:12:47.198Z,2.33
2019-06-20T19:16:04.668Z,2.70
2019-06-20T19:19:21.502Z,2.85
2019-06-20T19:22:38.219Z,3.00
2019-06-20T19:25:55.011Z,2.47
2019-06-20T19:29:12.131Z,3.02
2019-06-20T19:32:28.850Z,3.02
2019-06-20T19:35:47.666Z,5.10
2019-06-20T19:39:08.606Z,3.95
2019-06-20T19:42:26.915Z,4.53
2019-06-20T19:45:44.571Z,2.87
2019-06-20T19:49:17.856Z,2.80
2019-06-20T19:52:41.933Z,3.35
2019-06-20T19:56:08.475Z,4.03
2019-06-20T19:59:25.049Z,5.35
2019-06-20T20:03:26.930Z,4.40
2019-06-20T20:06:56.225Z,6.45
2019-06-20T20:10:13.509Z,3.87
2019-06-20T20:13:34.622Z,6.35
2019-06-20T20:16:51.342Z,3.67
2019-06-20T20:20:08.009Z,5.00
2019-06-20T20:23:24.800Z,4.10
2019-06-20T20:26:41.666Z,5.17
2019-06-20T20:29:58.347Z,5.90
2019-06-20T20:33:16.965Z,8.55
2019-06-20T20:36:35.286Z,5.17
2019-06-20T20:39:52.049Z,5.20
2019-06-20T20:43:09.200Z,5.40
2019-06-20T20:46:27.587Z,6.62
2019-06-20T20:49:44.529Z,6.30
2019-06-20T20:53:02.752Z,6.58
2019-06-20T20:56:26.223Z,11.78
2019-06-20T20:59:46.352Z,9.23
2019-06-20T21:03:07.308Z,10.20
2019-06-20T21:06:23.498Z,11.20
2019-06-20T21:09:46.041Z,5.70
2019-06-20T21:13:02.972Z,4.97
2019-06-20T21:16:19.658Z,9.75
2019-06-20T21:19:49.192Z,6.58
